createdAt,value
2023-03-04T00:01:46.310Z,6.43
2023-03-04T00:03:59.719Z,6.38
2023-03-04T00:06:14.008Z,6.39
2023-03-04T00:08:26.987Z,6.38
2023-03-04T00:10:39.847Z,6.34
2023-03-04T00:12:52.823Z,6.31
2023-03-04T00:15:06.641Z,6.28
2023-03-04T00:17:19.650Z,6.26
2023-03-04T00:19:33.461Z,6.25
2023-03-04T00:21:46.316Z,6.26
2023-03-04T00:23:59.087Z,6.27
2023-03-04T00:26:14.588Z,6.29
2023-03-04T00:28:29.326Z,6.29
2023-03-04T00:30:42.418Z,6.29
2023-03-04T00:32:55.246Z,6.30
2023-03-04T00:35:10.550Z,6.28
2023-03-04T00:37:26.864Z,6.27
2023-03-04T00:39:39.886Z,6.26
2023-03-04T00:41:53.287Z,6.23
2023-03-04T00:44:06.307Z,6.23
2023-03-04T00:46:19.974Z,6.21
2023-03-04T00:48:33.254Z,6.22
2023-03-04T00:50:47.401Z,6.21
2023-03-04T00:53:01.049Z,6.21
2023-03-04T00:55:15.483Z,6.20
2023-03-04T00:57:29.224Z,6.18
2023-03-04T00:59:42.466Z,6.18
2023-03-04T01:01:55.125Z,6.18
2023-03-04T01:04:08.273Z,6.16
2023-03-04T01:06:21.225Z,6.14
2023-03-04T01:08:34.665Z,6.15
2023-03-04T01:10:49.902Z,6.15
2023-03-04T01:13:03.632Z,6.13
2023-03-04T01:15:18.083Z,6.13
2023-03-04T01:17:33.993Z,6.12
2023-03-04T01:19:46.887Z,6.11
2023-03-04T01:22:00.309Z,6.07
2023-03-04T01:24:13.624Z,6.04
2023-03-04T01:26:26.674Z,6.01
2023-03-04T01:28:40.154Z,5.96
2023-03-04T01:30:53.450Z,5.90
2023-03-04T01:33:06.769Z,5.88
2023-03-04T01:35:19.951Z,5.85
2023-03-04T01:37:32.736Z,5.82
2023-03-04T01:39:45.793Z,5.80
2023-03-04T01:41:59.530Z,5.79
2023-03-04T01:44:12.914Z,5.78
2023-03-04T01:46:26.408Z,5.77
2023-03-04T01:48:41.896Z,5.76
2023-03-04T01:50:55.120Z,5.73
2023-03-04T01:53:08.710Z,5.71
2023-03-04T01:55:25.698Z,5.68
2023-03-04T01:57:42.856Z,5.64
2023-03-04T02:00:22.961Z,5.60
2023-03-04T02:02:36.118Z,5.56
2023-03-04T02:04:49.812Z,5.54
2023-03-04T02:07:10.585Z,5.52
2023-03-04T02:09:24.472Z,5.47
2023-03-04T02:11:38.085Z,5.44
2023-03-04T02:13:51.096Z,5.42
2023-03-04T02:16:04.146Z,5.40
2023-03-04T02:18:22.401Z,5.38
2023-03-04T02:20:47.982Z,5.34
2023-03-04T02:23:11.128Z,5.31
2023-03-04T02:25:27.528Z,5.28
2023-03-04T02:27:40.548Z,5.28
2023-03-04T02:29:54.508Z,5.27
2023-03-04T02:32:07.786Z,5.26
2023-03-04T02:34:23.426Z,5.25
2023-03-04T02:36:38.028Z,5.23
2023-03-04T02:38:51.118Z,5.22
2023-03-04T02:41:06.028Z,5.18
2023-03-04T02:43:19.458Z,5.16
2023-03-04T02:45:46.219Z,5.15
2023-03-04T02:47:59.779Z,5.14
2023-03-04T02:50:17.711Z,5.13
2023-03-04T02:52:32.217Z,5.12
2023-03-04T02:54:46.524Z,5.12
2023-03-04T02:57:05.103Z,5.11
2023-03-04T02:59:19.766Z,5.09
2023-03-04T03:01:36.755Z,5.08
2023-03-04T03:03:50.313Z,5.06
2023-03-04T03:06:04.202Z,5.06
2023-03-04T03:08:18.181Z,5.07
2023-03-04T03:10:31.171Z,5.08
2023-03-04T03:12:44.381Z,5.06
2023-03-04T03:14:57.750Z,5.03
2023-03-04T03:17:11.595Z,4.99
2023-03-04T03:19:24.399Z,4.98
2023-03-04T03:21:38.383Z,4.95
2023-03-04T03:23:51.333Z,4.95
2023-03-04T03:26:05.831Z,4.94
2023-03-04T03:28:19.038Z,4.93
2023-03-04T03:30:32.317Z,4.93
2023-03-04T03:32:45.698Z,4.91
2023-03-04T03:34:59.166Z,4.89
2023-03-04T03:37:12.349Z,4.90
2023-03-04T03:39:25.696Z,4.93
2023-03-04T03:41:38.744Z,4.94
2023-03-04T03:43:51.589Z,4.95
2023-03-04T03:46:04.817Z,4.94
2023-03-04T03:48:18.207Z,4.94
2023-03-04T03:50:32.365Z,4.95
2023-03-04T03:52:45.786Z,4.96
2023-03-04T03:55:01.653Z,4.99
2023-03-04T03:57:15.006Z,5.00
2023-03-04T03:59:27.982Z,5.02
2023-03-04T04:01:44.726Z,5.03
2023-03-04T04:03:57.539Z,5.04
2023-03-04T04:06:11.597Z,5.04
2023-03-04T04:08:24.814Z,5.03
2023-03-04T04:10:38.428Z,5.01
2023-03-04T04:12:51.692Z,5.00
2023-03-04T04:15:08.778Z,4.99
2023-03-04T04:17:22.199Z,4.98
2023-03-04T04:19:36.298Z,4.95
2023-03-04T04:21:50.316Z,4.91
2023-03-04T04:24:04.322Z,4.89
2023-03-04T04:26:17.322Z,4.83
2023-03-04T04:28:30.843Z,4.79
2023-03-04T04:30:44.072Z,4.74
2023-03-04T04:32:57.155Z,4.70
2023-03-04T04:35:11.164Z,4.67
2023-03-04T04:37:24.232Z,4.67
2023-03-04T04:39:41.273Z,4.65
2023-03-04T04:41:55.194Z,4.66
2023-03-04T04:44:08.232Z,4.66
2023-03-04T04:46:21.439Z,4.67
2023-03-04T04:48:38.831Z,4.69
2023-03-04T04:50:57.240Z,4.71
2023-03-04T04:53:09.906Z,4.72
2023-03-04T04:55:23.331Z,4.71
2023-03-04T04:57:36.784Z,4.71
2023-03-04T04:59:50.529Z,4.70
2023-03-04T05:02:04.773Z,4.69
2023-03-04T05:04:17.615Z,4.70
2023-03-04T05:06:30.905Z,4.71
2023-03-04T05:08:44.318Z,4.72
2023-03-04T05:10:57.687Z,4.73
2023-03-04T05:13:10.818Z,4.74
2023-03-04T05:15:24.100Z,4.76
2023-03-04T05:17:37.174Z,4.77
2023-03-04T05:19:50.155Z,4.79
2023-03-04T05:22:03.230Z,4.78
2023-03-04T05:24:16.241Z,4.80
2023-03-04T05:26:29.369Z,4.83
2023-03-04T05:28:42.915Z,4.85
2023-03-04T05:30:56.751Z,4.85
2023-03-04T05:33:10.351Z,4.87
2023-03-04T05:35:23.764Z,4.88
2023-03-04T05:37:37.259Z,4.88
2023-03-04T05:39:50.314Z,4.87
2023-03-04T05:42:03.030Z,4.87
2023-03-04T05:44:15.860Z,4.87
2023-03-04T05:46:30.698Z,4.86
2023-03-04T05:48:45.069Z,4.85
2023-03-04T05:51:04.285Z,4.84
2023-03-04T05:53:17.390Z,4.83
2023-03-04T05:55:31.401Z,4.82
2023-03-04T05:57:44.223Z,4.81
2023-03-04T05:59:57.234Z,4.79
2023-03-04T06:02:10.240Z,4.80
2023-03-04T06:04:27.151Z,4.80
2023-03-04T06:06:40.074Z,4.82
2023-03-04T06:08:53.070Z,4.83
2023-03-04T06:11:06.712Z,4.84
2023-03-04T06:13:20.152Z,4.86
2023-03-04T06:15:33.557Z,4.87
2023-03-04T06:17:47.334Z,4.86
2023-03-04T06:20:00.232Z,4.86
2023-03-04T06:22:14.320Z,4.87
2023-03-04T06:24:33.111Z,4.88
2023-03-04T06:26:46.081Z,4.88
2023-03-04T06:28:58.900Z,4.88
2023-03-04T06:31:16.494Z,4.87
2023-03-04T06:33:30.127Z,4.87
2023-03-04T06:35:43.063Z,4.87
2023-03-04T06:37:56.753Z,4.86
2023-03-04T06:40:12.457Z,4.86
2023-03-04T06:42:25.687Z,4.87
2023-03-04T06:44:38.945Z,4.88
2023-03-04T06:46:51.797Z,4.89
2023-03-04T06:49:05.650Z,4.89
2023-03-04T06:51:18.964Z,4.90
2023-03-04T06:53:32.519Z,4.91
2023-03-04T06:55:45.470Z,4.91
2023-03-04T06:57:58.737Z,4.91
2023-03-04T07:00:17.170Z,4.87
2023-03-04T07:02:30.518Z,4.86
2023-03-04T07:04:43.530Z,4.84
2023-03-04T07:06:57.371Z,4.81
2023-03-04T07:09:11.062Z,4.79
2023-03-04T07:11:25.046Z,4.78
2023-03-04T07:13:39.447Z,4.76
2023-03-04T07:15:52.511Z,4.72
2023-03-04T07:18:05.638Z,4.71
2023-03-04T07:20:19.230Z,4.69
2023-03-04T07:22:32.380Z,4.67
2023-03-04T07:24:45.826Z,4.64
2023-03-04T07:26:58.959Z,4.61
2023-03-04T07:29:12.598Z,4.59
2023-03-04T07:31:31.003Z,4.57
2023-03-04T07:33:44.545Z,4.56
2023-03-04T07:36:04.733Z,4.53
2023-03-04T07:38:18.059Z,4.49
2023-03-04T07:40:31.488Z,4.45
2023-03-04T07:42:45.550Z,4.43
2023-03-04T07:45:02.943Z,4.42
2023-03-04T07:47:16.089Z,4.41
2023-03-04T07:49:29.050Z,4.41
2023-03-04T07:51:45.971Z,4.43
2023-03-04T07:54:04.514Z,4.45
2023-03-04T07:56:22.050Z,4.45
2023-03-04T07:58:35.505Z,4.46
2023-03-04T08:00:48.504Z,4.47
2023-03-04T08:03:02.241Z,4.48
2023-03-04T08:05:15.689Z,4.48
2023-03-04T08:07:28.671Z,4.48
2023-03-04T08:09:41.890Z,4.48
2023-03-04T08:11:54.933Z,4.48
2023-03-04T08:14:07.989Z,4.48
2023-03-04T08:16:21.990Z,4.48
2023-03-04T08:18:36.050Z,4.47
2023-03-04T08:20:54.101Z,4.46
2023-03-04T08:25:32.896Z,4.46
2023-03-04T08:27:46.409Z,4.45
2023-03-04T08:29:59.875Z,4.43
2023-03-04T08:32:13.251Z,4.42
2023-03-04T08:34:28.206Z,4.42
2023-03-04T08:36:41.470Z,4.42
2023-03-04T08:38:54.808Z,4.43
2023-03-04T08:41:07.918Z,4.44
2023-03-04T08:43:21.393Z,4.44
2023-03-04T08:45:34.888Z,4.44
2023-03-04T08:47:47.668Z,4.43
2023-03-04T08:50:01.623Z,4.43
2023-03-04T08:52:15.450Z,4.42
2023-03-04T08:54:28.418Z,4.40
2023-03-04T08:56:41.258Z,4.39
2023-03-04T08:58:55.190Z,4.38
2023-03-04T09:01:08.528Z,4.36
2023-03-04T09:03:22.485Z,4.35
2023-03-04T09:05:35.958Z,4.35
2023-03-04T09:07:48.799Z,4.35
2023-03-04T09:10:05.036Z,4.33
2023-03-04T09:12:18.234Z,4.33
2023-03-04T09:14:31.679Z,4.33
2023-03-04T09:16:44.838Z,4.32
2023-03-04T09:18:58.168Z,4.31
2023-03-04T09:21:12.061Z,4.31
2023-03-04T09:23:25.558Z,4.31
2023-03-04T09:25:39.137Z,4.31
2023-03-04T09:27:55.694Z,4.30
2023-03-04T09:30:13.308Z,4.29
2023-03-04T09:32:26.875Z,4.29
2023-03-04T09:34:40.394Z,4.29
2023-03-04T09:36:53.906Z,4.30
2023-03-04T09:39:07.829Z,4.32
2023-03-04T09:41:25.169Z,4.34
2023-03-04T09:43:41.314Z,4.36
2023-03-04T09:45:59.146Z,4.38
2023-03-04T09:48:14.410Z,4.41
2023-03-04T09:50:29.114Z,4.44
2023-03-04T09:52:57.694Z,4.47
2023-03-04T09:55:23.300Z,4.51
2023-03-04T09:57:52.376Z,4.53
2023-03-04T10:00:22.698Z,4.53
2023-03-04T10:02:48.538Z,4.54
2023-03-04T10:05:06.704Z,4.55
2023-03-04T10:07:24.549Z,4.55
2023-03-04T10:09:50.020Z,4.57
2023-03-04T10:12:08.066Z,4.58
2023-03-04T10:14:37.113Z,4.59
2023-03-04T10:16:55.108Z,4.60
2023-03-04T10:19:32.779Z,4.62
2023-03-04T10:21:49.238Z,4.62
2023-03-04T10:24:03.627Z,4.63
2023-03-04T10:26:21.930Z,4.63
2023-03-04T10:28:37.589Z,4.64
2023-03-04T10:30:56.902Z,4.65
2023-03-04T10:33:17.772Z,4.66
2023-03-04T10:35:37.552Z,4.68
2023-03-04T10:37:56.227Z,4.67
2023-03-04T10:40:21.411Z,4.67
2023-03-04T10:42:38.416Z,4.66
2023-03-04T10:44:59.366Z,4.65
2023-03-04T10:47:15.773Z,4.64
2023-03-04T10:49:30.602Z,4.65
2023-03-04T10:51:48.532Z,4.62
2023-03-04T10:54:09.950Z,4.61
2023-03-04T10:56:41.532Z,4.57
2023-03-04T10:58:54.677Z,4.54
2023-03-04T11:01:09.924Z,4.50
2023-03-04T11:03:37.797Z,4.46
2023-03-04T11:05:51.454Z,4.42
2023-03-04T11:08:05.720Z,4.37
2023-03-04T11:10:23.555Z,4.34
2023-03-04T11:12:44.046Z,4.31
2023-03-04T11:14:58.535Z,4.27
2023-03-04T11:17:26.922Z,4.24
2023-03-04T11:19:44.854Z,4.21
2023-03-04T11:21:59.972Z,4.19
2023-03-04T11:24:29.541Z,4.17
2023-03-04T11:26:49.282Z,4.15
2023-03-04T11:29:09.199Z,4.13
2023-03-04T11:31:27.599Z,4.11
2023-03-04T11:33:47.214Z,4.09
2023-03-04T11:36:13.186Z,4.06
2023-03-04T11:38:30.873Z,4.03
2023-03-04T11:40:47.544Z,4.01
2023-03-04T11:43:06.427Z,3.99
2023-03-04T11:45:29.196Z,3.95
2023-03-04T11:48:08.388Z,3.89
2023-03-04T11:50:46.894Z,3.87
2023-03-04T11:53:24.215Z,3.84
2023-03-04T11:55:44.783Z,3.83
2023-03-04T11:58:08.989Z,3.83
2023-03-04T12:00:39.004Z,3.81
2023-03-04T12:03:04.319Z,3.81
2023-03-04T12:05:47.339Z,3.78
2023-03-04T12:08:31.378Z,3.75
2023-03-04T12:10:51.303Z,3.72
2023-03-04T12:13:26.021Z,3.69
2023-03-04T12:15:53.504Z,3.66
2023-03-04T12:18:22.572Z,3.65
2023-03-04T12:20:49.351Z,3.64
2023-03-04T12:23:15.234Z,3.62
2023-03-04T12:25:42.281Z,3.61
2023-03-04T12:28:06.730Z,3.60
2023-03-04T12:30:34.713Z,3.65
2023-03-04T12:32:56.128Z,3.69
2023-03-04T12:35:28.843Z,3.68
2023-03-04T12:37:53.281Z,3.68
2023-03-04T12:40:34.091Z,3.70
2023-03-04T12:43:01.220Z,3.70
2023-03-04T12:45:26.767Z,3.68
2023-03-04T12:47:50.387Z,3.66
2023-03-04T12:50:30.820Z,3.67
2023-03-04T12:52:58.437Z,3.63
2023-03-04T12:55:17.683Z,3.61
2023-03-04T12:57:33.063Z,3.61
2023-03-04T12:59:51.301Z,3.61
2023-03-04T13:02:25.622Z,3.60
2023-03-04T13:04:54.915Z,3.59
2023-03-04T13:07:20.008Z,3.61
2023-03-04T13:09:36.917Z,3.62
2023-03-04T13:12:06.139Z,3.65
2023-03-04T13:14:36.066Z,3.72
2023-03-04T13:16:51.667Z,3.75
2023-03-04T13:19:05.950Z,3.78
2023-03-04T13:21:32.929Z,3.82
2023-03-04T13:23:46.279Z,3.87
2023-03-04T13:26:22.788Z,3.94
2023-03-04T13:28:38.566Z,3.99
2023-03-04T13:31:21.747Z,4.03
2023-03-04T13:33:59.403Z,4.07
2023-03-04T13:36:33.307Z,4.10
2023-03-04T13:39:01.703Z,4.13
2023-03-04T13:41:24.578Z,4.14
2023-03-04T13:43:44.596Z,4.16
2023-03-04T13:45:59.185Z,4.19
2023-03-04T13:48:27.113Z,4.21
2023-03-04T13:50:52.773Z,4.22
2023-03-04T13:53:33.136Z,4.24
2023-03-04T13:55:46.875Z,4.26
2023-03-04T13:57:59.870Z,4.26
2023-03-04T14:00:22.090Z,4.27
2023-03-04T14:02:39.834Z,4.26
2023-03-04T14:05:00.936Z,4.26
2023-03-04T14:07:28.205Z,4.27
2023-03-04T14:09:42.385Z,4.29
2023-03-04T14:11:58.239Z,4.29
2023-03-04T14:14:15.625Z,4.30
2023-03-04T14:16:32.589Z,4.31
2023-03-04T14:18:46.497Z,4.33
2023-03-04T14:21:02.457Z,4.34
2023-03-04T14:25:52.470Z,4.40
2023-03-04T14:28:15.926Z,4.39
2023-03-04T14:30:45.813Z,4.40
2023-03-04T14:33:01.031Z,4.39
2023-03-04T14:35:29.855Z,4.41
2023-03-04T14:37:52.237Z,4.42
2023-03-04T14:40:07.614Z,4.41
2023-03-04T14:42:24.048Z,4.40
2023-03-04T14:44:41.067Z,4.40
2023-03-04T14:47:07.633Z,4.38
2023-03-04T14:49:21.609Z,4.37
2023-03-04T14:51:44.553Z,4.36
2023-03-04T14:54:02.803Z,4.34
2023-03-04T14:56:17.192Z,4.32
2023-03-04T14:58:32.630Z,4.34
2023-03-04T15:00:46.034Z,4.35
2023-03-04T15:03:00.814Z,4.36
2023-03-04T15:05:25.938Z,4.37
2023-03-04T15:07:41.622Z,4.38
2023-03-04T15:09:59.264Z,4.39
2023-03-04T15:12:13.792Z,4.39
2023-03-04T15:14:59.765Z,4.39
2023-03-04T15:17:32.796Z,4.40
2023-03-04T15:19:43.262Z,4.41
2023-03-04T15:22:06.120Z,4.41
2023-03-04T15:24:19.009Z,4.40
2023-03-04T15:26:32.439Z,4.41
2023-03-04T15:28:46.025Z,4.42
2023-03-04T15:30:59.862Z,4.43
2023-03-04T15:33:17.878Z,4.43
2023-03-04T15:35:35.334Z,4.43
2023-03-04T15:37:50.631Z,4.43
2023-03-04T15:40:05.808Z,4.44
2023-03-04T15:42:20.795Z,4.44
2023-03-04T15:44:33.886Z,4.45
2023-03-04T15:46:47.359Z,4.46
2023-03-04T15:49:00.242Z,4.47
2023-03-04T15:51:20.524Z,4.46
2023-03-04T15:53:40.790Z,4.45
2023-03-04T15:55:54.018Z,4.45
2023-03-04T15:58:07.578Z,4.44
2023-03-04T16:00:22.906Z,4.43
2023-03-04T16:02:36.077Z,4.41
2023-03-04T16:04:49.368Z,4.39
2023-03-04T16:07:02.388Z,4.39
2023-03-04T16:09:26.186Z,4.42
2023-03-04T16:11:43.396Z,4.45
2023-03-04T16:13:56.608Z,4.47
2023-03-04T16:16:13.366Z,4.48
2023-03-04T16:18:27.426Z,4.48
2023-03-04T16:20:41.615Z,4.46
2023-03-04T16:22:58.297Z,4.44
2023-03-04T16:25:13.475Z,4.46
2023-03-04T16:27:27.726Z,4.49
2023-03-04T16:29:45.221Z,4.51
2023-03-04T16:32:00.277Z,4.49
2023-03-04T16:34:13.435Z,4.47
2023-03-04T16:36:30.166Z,4.47
2023-03-04T16:38:44.134Z,4.48
2023-03-04T16:40:58.747Z,4.47
2023-03-04T16:43:12.593Z,4.48
2023-03-04T16:45:27.364Z,4.44
2023-03-04T16:47:40.589Z,4.43
2023-03-04T16:49:54.464Z,4.44
2023-03-04T16:52:08.965Z,4.46
2023-03-04T16:54:31.639Z,4.47
2023-03-04T16:56:44.928Z,4.48
2023-03-04T16:58:58.576Z,4.50
2023-03-04T17:01:18.270Z,4.51
2023-03-04T17:03:31.474Z,4.55
2023-03-04T17:05:48.987Z,4.59
2023-03-04T17:08:02.331Z,4.61
2023-03-04T17:10:18.601Z,4.63
2023-03-04T17:12:31.731Z,4.65
2023-03-04T17:14:46.326Z,4.68
2023-03-04T17:16:59.360Z,4.70
2023-03-04T17:19:12.600Z,4.72
2023-03-04T17:21:28.238Z,4.77
2023-03-04T17:23:41.144Z,4.82
2023-03-04T17:26:02.558Z,4.88
2023-03-04T17:28:16.199Z,4.96
2023-03-04T17:30:29.719Z,5.02
2023-03-04T17:32:43.094Z,5.10
2023-03-04T17:34:56.979Z,5.20
2023-03-04T17:37:10.826Z,5.30
2023-03-04T17:39:24.383Z,5.37
2023-03-04T17:41:41.475Z,5.43
2023-03-04T17:43:56.427Z,5.54
2023-03-04T17:46:15.935Z,5.62
2023-03-04T17:48:29.385Z,5.65
2023-03-04T17:50:42.811Z,5.67
2023-03-04T17:52:56.267Z,5.66
2023-03-04T17:55:10.278Z,5.62
2023-03-04T17:57:23.646Z,5.61
2023-03-04T17:59:37.176Z,5.60
2023-03-04T18:01:53.983Z,5.58
2023-03-04T18:04:07.363Z,5.57
2023-03-04T18:06:20.555Z,5.56
2023-03-04T18:08:33.996Z,5.55
2023-03-04T18:10:46.765Z,5.55
2023-03-04T18:12:59.686Z,5.58
2023-03-04T18:15:17.270Z,5.63
2023-03-04T18:17:31.295Z,5.76
2023-03-04T18:19:44.737Z,5.92
2023-03-04T18:21:58.334Z,6.06
2023-03-04T18:24:15.235Z,6.15
2023-03-04T18:26:28.276Z,6.22
2023-03-04T18:28:41.707Z,6.30
2023-03-04T18:30:57.076Z,6.42
2023-03-04T18:33:10.384Z,6.57
2023-03-04T18:35:23.930Z,6.66
2023-03-04T18:37:37.469Z,6.73
2023-03-04T18:39:50.370Z,6.84
2023-03-04T18:42:03.867Z,6.95
2023-03-04T18:44:17.171Z,7.04
2023-03-04T18:46:45.239Z,7.08
2023-03-04T18:49:02.941Z,7.11
2023-03-04T18:51:16.339Z,7.06
2023-03-04T18:53:29.179Z,6.99
2023-03-04T18:55:42.269Z,6.98
2023-03-04T18:57:59.149Z,7.04
2023-03-04T19:00:14.618Z,7.00
2023-03-04T19:02:31.774Z,7.00
2023-03-04T19:04:45.299Z,7.05
2023-03-04T19:07:00.180Z,7.16
2023-03-04T19:09:13.803Z,7.25
2023-03-04T19:11:28.009Z,7.33
2023-03-04T19:13:41.448Z,7.32
2023-03-04T19:15:55.839Z,7.28
2023-03-04T19:18:09.359Z,7.21
2023-03-04T19:20:22.980Z,7.09
2023-03-04T19:22:36.182Z,6.96
2023-03-04T19:24:49.772Z,6.84
2023-03-04T19:27:06.938Z,6.73
2023-03-04T19:29:21.465Z,6.60
2023-03-04T19:31:34.630Z,6.47
2023-03-04T19:33:47.962Z,6.44
2023-03-04T19:36:01.252Z,6.46
2023-03-04T19:38:15.080Z,6.45
2023-03-04T19:40:29.663Z,6.44
2023-03-04T19:42:43.740Z,6.46
2023-03-04T19:44:56.638Z,6.42
2023-03-04T19:47:09.949Z,6.37
2023-03-04T19:49:23.378Z,6.31
2023-03-04T19:51:37.088Z,6.29
2023-03-04T19:53:51.989Z,6.29
2023-03-04T19:56:05.408Z,6.29
2023-03-04T20:00:48.718Z,6.45
2023-03-04T20:03:03.220Z,6.45
2023-03-04T20:05:16.630Z,6.42
2023-03-04T20:07:29.983Z,6.43
2023-03-04T20:09:47.219Z,6.54
2023-03-04T20:12:01.264Z,6.66
2023-03-04T20:14:14.057Z,6.75
2023-03-04T20:16:31.216Z,6.87
2023-03-04T20:18:45.157Z,6.98
2023-03-04T20:21:01.966Z,7.03
2023-03-04T20:23:14.765Z,7.09
2023-03-04T20:25:30.085Z,7.10
2023-03-04T20:27:42.895Z,7.11
2023-03-04T20:29:56.495Z,7.12
2023-03-04T20:32:13.341Z,7.11
2023-03-04T20:34:28.121Z,7.09
2023-03-04T20:36:41.531Z,7.08
2023-03-04T20:39:02.036Z,7.11
2023-03-04T20:41:16.553Z,7.13
2023-03-04T20:43:32.473Z,7.16
2023-03-04T20:45:46.652Z,7.20
2023-03-04T20:47:59.932Z,7.23
2023-03-04T20:50:14.063Z,7.26
2023-03-04T20:52:27.791Z,7.24
2023-03-04T20:54:41.682Z,7.22
2023-03-04T20:56:55.605Z,7.26
2023-03-04T20:59:11.901Z,7.29
2023-03-04T21:01:26.537Z,7.29
2023-03-04T21:03:39.502Z,7.23
2023-03-04T21:05:52.650Z,7.14
2023-03-04T21:08:07.227Z,7.04
2023-03-04T21:10:21.902Z,6.88
2023-03-04T21:12:34.841Z,6.75
2023-03-04T21:14:48.247Z,6.67
2023-03-04T21:17:02.656Z,6.62
2023-03-04T21:19:19.957Z,6.58
2023-03-04T21:21:33.594Z,6.47
2023-03-04T21:23:46.715Z,6.34
2023-03-04T21:25:59.668Z,6.26
2023-03-04T21:28:12.728Z,6.20
2023-03-04T21:30:26.034Z,6.23
2023-03-04T21:32:39.073Z,6.34
2023-03-04T21:34:58.450Z,6.52
2023-03-04T21:37:12.160Z,6.65
2023-03-04T21:39:27.365Z,6.73
2023-03-04T21:41:41.414Z,6.76
2023-03-04T21:43:55.546Z,6.81
2023-03-04T21:46:10.201Z,6.82
2023-03-04T21:48:23.788Z,6.80
2023-03-04T21:50:36.928Z,6.76
2023-03-04T21:52:50.081Z,6.73
2023-03-04T21:55:04.442Z,6.68
2023-03-04T21:57:17.455Z,6.64
2023-03-04T21:59:30.480Z,6.72
2023-03-04T22:01:43.820Z,6.91
2023-03-04T22:03:56.777Z,7.10
2023-03-04T22:06:14.044Z,7.26
2023-03-04T22:08:27.688Z,7.42
2023-03-04T22:10:43.456Z,7.46
2023-03-04T22:12:57.139Z,7.43
2023-03-04T22:15:17.581Z,7.39
2023-03-04T22:17:32.754Z,7.36
2023-03-04T22:19:45.964Z,7.32
2023-03-04T22:22:00.316Z,7.24
2023-03-04T22:24:14.674Z,7.15
2023-03-04T22:26:32.992Z,7.02
2023-03-04T22:28:46.556Z,6.89
2023-03-04T22:31:00.297Z,6.67
2023-03-04T22:33:13.373Z,6.48
2023-03-04T22:35:26.279Z,6.33
2023-03-04T22:37:39.169Z,6.20
2023-03-04T22:39:52.039Z,5.98
2023-03-04T22:42:05.172Z,5.79
2023-03-04T22:44:19.014Z,5.60
2023-03-04T22:46:33.772Z,5.45
2023-03-04T22:48:46.803Z,5.38
2023-03-04T22:51:00.978Z,5.37
2023-03-04T22:53:14.271Z,5.37
2023-03-04T22:55:28.876Z,5.37
2023-03-04T22:57:41.901Z,5.38
2023-03-04T22:59:54.940Z,5.38
2023-03-04T23:02:08.755Z,5.41
2023-03-04T23:04:22.281Z,5.48
2023-03-04T23:06:35.752Z,5.58
2023-03-04T23:08:51.018Z,5.69
2023-03-04T23:11:06.600Z,5.84
2023-03-04T23:13:22.170Z,5.98
2023-03-04T23:15:35.100Z,6.09
2023-03-04T23:17:48.833Z,6.20
2023-03-04T23:20:02.089Z,6.25
2023-03-04T23:22:15.541Z,6.30
2023-03-04T23:24:28.740Z,6.36
2023-03-04T23:26:44.064Z,6.45
2023-03-04T23:28:58.223Z,6.50
2023-03-04T23:31:11.575Z,6.55
2023-03-04T23:33:24.777Z,6.60
2023-03-04T23:35:38.746Z,6.61
2023-03-04T23:37:52.113Z,6.59
2023-03-04T23:40:05.167Z,6.56
2023-03-04T23:42:18.963Z,6.54
2023-03-04T23:44:33.163Z,6.51
2023-03-04T23:46:46.679Z,6.45
2023-03-04T23:49:00.681Z,6.41
2023-03-04T23:51:14.905Z,6.36
2023-03-04T23:53:28.154Z,6.30
2023-03-04T23:55:41.588Z,6.25
2023-03-04T23:57:55.076Z,6.16
